Time;durP1;ratioP1;P1;durP2;ratioP2;P2;SDS_P1;SDS_P2;PMS_P1;PMS_P2;Temp;Humidity;BMP_temperature;BMP_pressure;BME280_temperature;BME280_humidity;BME280_pressure;Samples;Min_cycle;Max_cycle;Signal;HPM_P1;HPM_P2
2021/07/16 00:01:02;;;;;;;4.72;1.50;;;;;;;15.50;98.81;97630.16;4989653;28;20047;-64
2021/07/16 00:03:50;;;;;;;1.88;0.90;;;;;;;15.39;98.57;97633.44;4989826;28;20476;-65
2021/07/16 00:06:47;;;;;;;3.80;1.10;;;;;;;15.48;97.43;97637.28;4989199;28;20166;-64
2021/07/16 00:09:35;;;;;;;4.97;1.30;;;;;;;15.46;98.34;97637.38;4971665;28;20311;-64
2021/07/16 00:12:23;;;;;;;4.13;1.80;;;;;;;15.44;98.78;97636.63;4989249;28;20050;-64
2021/07/16 00:15:13;;;;;;;2.50;1.20;;;;;;;15.48;98.41;97643.34;4990284;28;20446;-65
2021/07/16 00:18:00;;;;;;;10.43;2.30;;;;;;;15.26;98.60;97641.22;4988962;28;20089;-64
2021/07/16 00:20:48;;;;;;;3.13;1.20;;;;;;;15.35;98.61;97637.19;4990069;28;20077;-65
2021/07/16 00:23:37;;;;;;;4.35;1.38;;;;;;;15.29;98.43;97644.56;4995935;28;20396;-65
2021/07/16 00:26:25;;;;;;;2.65;1.63;;;;;;;15.22;98.94;97631.03;4996277;28;20050;-64
2021/07/16 00:29:14;;;;;;;3.35;1.30;;;;;;;15.40;97.56;97629.91;4995742;28;20086;-65
2021/07/16 00:32:01;;;;;;;3.83;1.33;;;;;;;15.35;98.11;97634.59;5012033;28;20089;-65
2021/07/16 00:34:49;;;;;;;5.22;1.60;;;;;;;15.32;98.05;97633.91;4999833;28;20078;-64
2021/07/16 00:37:38;;;;;;;9.82;1.73;;;;;;;15.16;98.37;97637.44;4997711;28;20068;-65
2021/07/16 00:40:26;;;;;;;4.63;1.40;;;;;;;15.17;98.56;97631.31;4996715;28;20434;-65
2021/07/16 00:43:13;;;;;;;7.97;1.85;;;;;;;15.15;98.47;97627.94;4992539;28;20101;-65
2021/07/16 00:46:01;;;;;;;10.82;1.60;;;;;;;15.10;98.50;97635.22;4993530;28;20078;-65
2021/07/16 00:48:49;;;;;;;3.08;1.40;;;;;;;15.04;99.39;97636.41;4995479;28;20510;-64
2021/07/16 00:51:38;;;;;;;7.22;1.92;;;;;;;14.96;100.00;97638.66;4995209;28;20502;-65
2021/07/16 00:54:27;;;;;;;3.53;1.27;;;;;;;15.02;100.00;97637.44;4989245;28;20050;-64
2021/07/16 00:57:15;;;;;;;5.57;1.33;;;;;;;15.09;100.00;97636.13;4996306;28;20157;-64
2021/07/16 01:00:08;;;;;;;1.85;1.10;;;;;;;15.09;100.00;97638.75;4995867;28;20176;-65
2021/07/16 01:02:56;;;;;;;2.75;1.10;;;;;;;15.13;100.00;97642.88;4993764;28;20085;-64
2021/07/16 01:05:44;;;;;;;3.67;0.85;;;;;;;15.15;99.41;97645.41;4994096;28;20038;-65
2021/07/16 01:08:32;;;;;;;10.65;1.70;;;;;;;14.99;99.66;97648.09;4993331;28;20149;-64
2021/07/16 01:11:20;;;;;;;5.88;1.30;;;;;;;14.95;99.67;97647.41;4993373;28;20046;-65
2021/07/16 01:14:10;;;;;;;6.93;1.30;;;;;;;15.11;99.19;97644.72;4995496;28;20042;-65
2021/07/16 01:17:01;;;;;;;3.38;1.40;;;;;;;15.19;98.71;97644.25;4996020;28;20042;-64
2021/07/16 01:20:00;;;;;;;9.60;1.58;;;;;;;15.26;98.06;97637.75;4981862;28;20415;-65
2021/07/16 01:22:48;;;;;;;4.05;0.90;;;;;;;15.24;97.98;97643.06;4996397;28;20135;-65
2021/07/16 01:25:36;;;;;;;1.10;0.85;;;;;;;15.12;97.81;97640.34;4992918;28;20050;-65
2021/07/16 01:28:24;;;;;;;4.57;1.23;;;;;;;15.12;99.54;97638.59;4980841;28;20061;-65
2021/07/16 01:31:11;;;;;;;4.80;1.67;;;;;;;15.14;99.44;97635.88;4993456;28;20176;-65
2021/07/16 01:33:59;;;;;;;3.00;0.90;;;;;;;15.16;99.05;97636.63;4984542;28;20070;-64
2021/07/16 01:36:47;;;;;;;5.30;1.05;;;;;;;15.09;99.70;97638.75;4978531;28;20058;-64
2021/07/16 01:39:35;;;;;;;4.60;1.13;;;;;;;15.07;98.40;97643.22;4982694;28;20047;-65
2021/07/16 01:42:22;;;;;;;3.95;1.90;;;;;;;14.95;99.73;97649.19;4987798;28;20042;-65
2021/07/16 01:45:18;;;;;;;5.13;1.38;;;;;;;14.96;100.00;97651.72;4992424;28;20042;-65
2021/07/16 01:48:11;;;;;;;6.05;1.73;;;;;;;15.01;100.00;97652.28;4991389;28;20050;-65
2021/07/16 01:50:59;;;;;;;5.15;1.45;;;;;;;15.05;100.00;97653.81;4991444;28;20074;-65
2021/07/16 01:53:47;;;;;;;5.07;1.88;;;;;;;15.15;100.00;97655.88;4982727;28;20518;-65
2021/07/16 01:56:35;;;;;;;3.95;2.00;;;;;;;15.31;100.00;97666.25;4992986;28;20590;-65
2021/07/16 01:59:22;;;;;;;7.50;2.00;;;;;;;15.32;100.00;97662.69;4991638;28;20426;-65
2021/07/16 02:02:10;;;;;;;3.85;1.48;;;;;;;15.37;100.00;97661.50;4989374;28;20105;-65
2021/07/16 02:04:58;;;;;;;3.95;1.30;;;;;;;15.51;100.00;97659.78;4991546;28;20051;-65
2021/07/16 02:07:47;;;;;;;6.47;1.90;;;;;;;15.45;99.42;97658.41;4989657;28;20430;-65
2021/07/16 02:10:36;;;;;;;3.53;1.90;;;;;;;15.44;100.00;97664.53;4992194;28;20039;-65
2021/07/16 02:13:25;;;;;;;3.97;2.00;;;;;;;15.50;100.00;97671.19;4989287;28;20046;-65
2021/07/16 02:16:13;;;;;;;4.93;1.60;;;;;;;15.47;100.00;97673.06;4992463;28;20423;-65
2021/07/16 02:19:02;;;;;;;6.85;1.55;;;;;;;15.51;100.00;97678.97;4990275;28;20375;-65
2021/07/16 02:21:49;;;;;;;3.78;1.63;;;;;;;15.59;100.00;97670.63;4990712;28;20052;-65
2021/07/16 02:24:37;;;;;;;1.98;1.40;;;;;;;15.69;100.00;97666.50;4973945;28;20066;-65
2021/07/16 02:27:25;;;;;;;5.15;1.80;;;;;;;15.81;99.69;97671.03;4980497;28;20046;-65
2021/07/16 02:30:14;;;;;;;2.85;1.40;;;;;;;15.94;98.53;97665.00;4987713;28;20093;-65
2021/07/16 02:33:03;;;;;;;4.13;1.25;;;;;;;15.93;98.12;97660.72;4993231;28;20053;-65
2021/07/16 02:35:51;;;;;;;2.25;0.90;;;;;;;16.01;97.42;97661.06;4991203;28;20522;-65
2021/07/16 02:38:39;;;;;;;3.05;1.25;;;;;;;16.01;96.91;97661.91;4991355;28;20039;-63
2021/07/16 02:41:27;;;;;;;5.45;1.10;;;;;;;15.92;97.30;97652.03;4989563;28;20091;-63
2021/07/16 02:44:14;;;;;;;1.80;1.00;;;;;;;15.92;96.93;97657.28;4992131;28;20042;-62
2021/07/16 02:47:02;;;;;;;2.65;0.95;;;;;;;15.98;95.97;97651.63;4987139;28;20132;-62
2021/07/16 02:49:50;;;;;;;4.60;1.48;;;;;;;15.80;97.67;97664.09;4992152;28;20042;-62
2021/07/16 02:52:38;;;;;;;4.22;1.40;;;;;;;15.78;97.06;97647.66;4983173;28;20086;-62
2021/07/16 02:55:26;;;;;;;2.92;1.17;;;;;;;15.72;96.91;97657.66;4989545;28;20042;-62
2021/07/16 02:58:15;;;;;;;11.95;1.60;;;;;;;15.54;99.04;97657.84;4990524;28;20090;-63
2021/07/16 03:01:03;;;;;;;5.90;1.50;;;;;;;15.61;98.80;97656.50;4988999;28;20534;-62
2021/07/16 03:03:51;;;;;;;4.10;1.60;;;;;;;15.56;98.84;97657.75;4989194;28;20054;-62
2021/07/16 03:06:38;;;;;;;3.88;1.70;;;;;;;15.44;99.04;97651.47;4983422;28;20061;-62
2021/07/16 03:09:26;;;;;;;4.60;1.98;;;;;;;15.38;98.50;97657.94;4990246;28;20050;-62
2021/07/16 03:12:14;;;;;;;6.07;2.92;;;;;;;15.23;99.58;97661.47;4990181;28;20049;-62
2021/07/16 03:15:23;;;;;;;6.20;2.95;;;;;;;15.23;100.00;97664.06;4987725;28;20137;-63
2021/07/16 03:18:11;;;;;;;7.90;3.42;;;;;;;15.39;98.97;97664.81;4990192;28;20113;-62
2021/07/16 03:20:59;;;;;;;6.30;3.40;;;;;;;15.43;99.22;97679.41;4989713;28;20246;-62
2021/07/16 03:23:47;;;;;;;5.13;2.63;;;;;;;15.53;98.75;97678.84;4990219;28;20467;-62
2021/07/16 03:26:37;;;;;;;6.10;2.45;;;;;;;15.31;99.91;97667.06;4990383;28;20034;-62
2021/07/16 03:29:24;;;;;;;9.85;2.60;;;;;;;15.37;99.60;97677.19;4990797;28;20791;-63
2021/07/16 03:32:12;;;;;;;10.70;3.75;;;;;;;15.32;99.96;97670.53;4986717;28;20054;-62
2021/07/16 03:35:00;;;;;;;4.93;2.80;;;;;;;15.44;99.53;97670.63;4989141;28;20058;-62
2021/07/16 03:37:48;;;;;;;8.77;2.45;;;;;;;15.37;99.99;97671.94;4989637;28;20132;-62
2021/07/16 03:40:36;;;;;;;7.20;2.85;;;;;;;15.53;99.58;97681.47;4988898;28;20415;-63
2021/07/16 03:43:24;;;;;;;8.20;3.92;;;;;;;15.51;99.52;97683.31;4991581;28;20042;-63
2021/07/16 03:46:12;;;;;;;4.95;2.50;;;;;;;15.69;98.80;97683.06;4987997;28;20050;-63
2021/07/16 03:49:00;;;;;;;4.93;2.20;;;;;;;15.65;98.54;97691.19;4976670;28;20038;-62
2021/07/16 03:51:48;;;;;;;6.63;2.70;;;;;;;15.68;98.13;97689.22;4984746;28;20061;-62
2021/07/16 03:54:36;;;;;;;6.10;2.38;;;;;;;15.65;98.30;97699.03;4989213;28;20153;-62
2021/07/16 03:57:24;;;;;;;4.93;2.97;;;;;;;15.61;99.27;97697.53;4985309;28;20399;-62
2021/07/16 04:00:15;;;;;;;8.25;2.95;;;;;;;15.76;98.82;97701.88;4989736;28;20089;-63
2021/07/16 04:03:05;;;;;;;7.32;3.90;;;;;;;15.86;98.98;97699.53;4987716;28;20501;-63
2021/07/16 04:05:56;;;;;;;9.65;4.82;;;;;;;15.77;99.40;97689.63;4991420;28;20038;-63
2021/07/16 04:08:44;;;;;;;6.43;3.63;;;;;;;15.90;99.36;97690.56;4987860;28;20108;-62
2021/07/16 04:11:32;;;;;;;8.65;5.00;;;;;;;16.13;98.03;97693.50;4972705;28;20181;-65
2021/07/16 04:14:21;;;;;;;23.33;11.70;;;;;;;16.06;100.00;97686.03;4957312;28;20074;-65
2021/07/16 04:17:11;;;;;;;31.60;18.38;;;;;;;16.08;100.00;97699.03;4969221;28;20047;-65
2021/07/16 04:19:59;;;;;;;32.67;18.20;;;;;;;16.10;100.00;97699.75;4955921;28;20051;-65
2021/07/16 04:22:47;;;;;;;22.48;13.60;;;;;;;16.12;100.00;97697.03;4969348;28;20477;-65
2021/07/16 04:25:35;;;;;;;30.05;19.52;;;;;;;16.16;100.00;97691.50;4971689;28;20062;-65
2021/07/16 04:28:23;;;;;;;23.40;17.13;;;;;;;16.20;100.00;97700.88;4971745;28;20051;-65
2021/07/16 04:31:11;;;;;;;25.85;18.38;;;;;;;16.24;100.00;97702.34;4969223;28;20102;-65
2021/07/16 04:33:58;;;;;;;23.35;14.43;;;;;;;16.36;100.00;97713.81;4973893;28;20392;-65
2021/07/16 04:36:46;;;;;;;32.72;22.48;;;;;;;16.43;100.00;97712.50;4969566;28;20047;-64
2021/07/16 04:39:34;;;;;;;35.58;25.02;;;;;;;16.47;100.00;97715.78;4978217;28;20042;-65
2021/07/16 04:42:22;;;;;;;31.70;20.75;;;;;;;16.53;100.00;97717.97;4970085;28;20593;-65
2021/07/16 04:45:12;;;;;;;38.58;23.17;;;;;;;16.45;100.00;97707.16;4969057;28;20133;-65
2021/07/16 04:47:59;;;;;;;27.15;17.35;;;;;;;16.56;100.00;97714.31;4968903;28;20146;-65
2021/07/16 04:50:47;;;;;;;24.15;16.23;;;;;;;16.59;100.00;97720.22;4969556;28;20082;-65
2021/07/16 04:53:35;;;;;;;29.73;18.75;;;;;;;16.60;100.00;97713.19;4971407;28;20105;-65
2021/07/16 04:56:23;;;;;;;31.77;18.45;;;;;;;16.61;100.00;97714.88;4972219;28;20043;-65
2021/07/16 04:59:11;;;;;;;27.00;16.15;;;;;;;16.69;100.00;97723.06;4972223;28;20070;-65
2021/07/16 05:01:59;;;;;;;26.65;18.23;;;;;;;16.72;100.00;97720.25;4979128;28;20038;-66
2021/07/16 05:04:49;;;;;;;34.85;22.48;;;;;;;16.76;100.00;97726.13;4957958;28;20156;-65
2021/07/16 05:07:36;;;;;;;28.15;17.17;;;;;;;16.87;100.00;97721.06;4973002;28;20077;-65
2021/07/16 05:10:24;;;;;;;25.98;16.13;;;;;;;16.97;100.00;97719.53;4991327;28;20178;-65
2021/07/16 05:13:12;;;;;;;26.23;16.23;;;;;;;17.02;100.00;97729.69;4984290;28;20077;-66
2021/07/16 05:16:00;;;;;;;33.53;22.48;;;;;;;17.03;100.00;97726.13;4996803;28;20050;-65
2021/07/16 05:18:47;;;;;;;39.33;24.38;;;;;;;17.02;100.00;97725.28;4993749;28;20042;-65
2021/07/16 05:21:35;;;;;;;40.70;24.40;;;;;;;17.01;100.00;97728.84;4992937;28;20062;-65
2021/07/16 05:24:23;;;;;;;34.75;23.55;;;;;;;17.06;100.00;97733.78;4994979;28;20069;-65
2021/07/16 05:27:11;;;;;;;35.88;22.92;;;;;;;17.06;100.00;97744.28;4979187;28;20483;-65
2021/07/16 05:29:58;;;;;;;39.80;26.92;;;;;;;17.00;100.00;97739.44;4993198;28;20077;-65
2021/07/16 05:32:46;;;;;;;36.33;25.30;;;;;;;17.06;100.00;97739.03;4975112;28;20137;-65
2021/07/16 05:35:34;;;;;;;40.60;26.83;;;;;;;17.05;100.00;97735.56;4981459;28;20047;-65
2021/07/16 05:38:22;;;;;;;42.88;27.88;;;;;;;17.02;100.00;97748.06;4974367;28;20124;-65
2021/07/16 05:41:10;;;;;;;42.67;29.15;;;;;;;17.02;100.00;97743.66;5001058;28;20046;-65
2021/07/16 05:43:58;;;;;;;44.22;29.55;;;;;;;17.04;100.00;97756.66;4992205;28;20038;-65
2021/07/16 05:46:45;;;;;;;39.10;26.85;;;;;;;17.08;100.00;97756.38;5001260;28;20046;-64
2021/07/16 05:49:33;;;;;;;42.80;27.52;;;;;;;17.12;100.00;97767.47;5010138;28;20088;-65
2021/07/16 05:52:22;;;;;;;44.40;29.45;;;;;;;16.99;100.00;97767.47;5009963;28;20049;-65
2021/07/16 05:55:11;;;;;;;51.45;30.33;;;;;;;16.90;100.00;97768.03;4994240;28;20038;-65
2021/07/16 05:57:59;;;;;;;57.90;33.13;;;;;;;16.79;100.00;97770.50;4987884;28;20053;-66
2021/07/16 06:00:47;;;;;;;54.38;32.92;;;;;;;16.75;100.00;97775.09;4993009;28;20097;-65
2021/07/16 06:03:35;;;;;;;56.95;33.88;;;;;;;16.76;100.00;97768.91;4986578;28;20046;-65
2021/07/16 06:06:23;;;;;;;52.03;32.72;;;;;;;16.70;100.00;97769.31;4990578;28;20140;-65
2021/07/16 06:09:10;;;;;;;44.58;28.35;;;;;;;16.79;100.00;97773.13;4993641;28;20081;-65
2021/07/16 06:11:58;;;;;;;49.50;31.55;;;;;;;16.60;100.00;97787.38;4989948;28;20050;-65
2021/07/16 06:14:47;;;;;;;42.78;28.65;;;;;;;16.61;100.00;97796.13;4988445;28;20433;-65
2021/07/16 06:17:34;;;;;;;45.72;28.38;;;;;;;16.59;100.00;97801.44;4991530;28;20097;-65
2021/07/16 06:20:22;;;;;;;45.75;28.92;;;;;;;16.47;100.00;97810.94;4989776;28;20355;-65
2021/07/16 06:23:11;;;;;;;52.95;28.88;;;;;;;16.51;100.00;97801.94;4991888;28;20054;-65
2021/07/16 06:25:58;;;;;;;41.17;26.58;;;;;;;16.40;100.00;97814.88;4991406;28;20086;-65
2021/07/16 06:28:46;;;;;;;39.53;23.90;;;;;;;16.41;100.00;97815.72;4989522;28;20570;-65
2021/07/16 06:31:34;;;;;;;41.63;26.10;;;;;;;16.41;100.00;97813.09;4991549;28;20038;-65
2021/07/16 06:34:22;;;;;;;35.92;23.05;;;;;;;16.44;100.00;97820.75;4989859;28;20121;-65
2021/07/16 06:37:10;;;;;;;31.38;20.73;;;;;;;16.27;100.00;97806.91;4987926;28;20046;-65
2021/07/16 06:39:57;;;;;;;26.35;18.42;;;;;;;16.19;100.00;97810.94;4988541;28;20046;-65
2021/07/16 06:42:45;;;;;;;24.65;14.60;;;;;;;16.17;100.00;97815.44;4989900;28;20053;-65
2021/07/16 06:45:33;;;;;;;15.18;10.23;;;;;;;16.06;100.00;97826.59;4987832;28;20121;-65
2021/07/16 06:48:21;;;;;;;15.60;10.50;;;;;;;15.93;100.00;97826.47;4988134;28;20157;-64
2021/07/16 06:51:09;;;;;;;16.48;10.18;;;;;;;16.01;100.00;97824.25;4989681;28;20042;-65
2021/07/16 06:53:57;;;;;;;13.00;9.20;;;;;;;16.11;100.00;97819.28;4989410;28;20042;-65
2021/07/16 06:56:45;;;;;;;7.43;5.25;;;;;;;16.19;100.00;97822.25;4992000;28;20125;-64
2021/07/16 06:59:32;;;;;;;6.65;4.72;;;;;;;16.35;100.00;97822.16;4989527;28;20140;-65
2021/07/16 07:02:20;;;;;;;9.68;4.38;;;;;;;16.35;100.00;97824.78;4989799;28;20515;-65
2021/07/16 07:05:09;;;;;;;8.05;5.32;;;;;;;16.49;100.00;97826.56;4989701;28;20046;-65
2021/07/16 07:07:57;;;;;;;6.57;4.70;;;;;;;16.65;100.00;97826.41;4988964;28;20046;-65
2021/07/16 07:10:45;;;;;;;9.68;5.10;;;;;;;16.83;100.00;97833.16;4989928;28;20102;-65
2021/07/16 07:13:34;;;;;;;7.18;5.20;;;;;;;17.04;100.00;97841.41;4974426;28;20491;-65
2021/07/16 07:16:22;;;;;;;6.10;4.68;;;;;;;16.81;100.00;97839.41;4976462;28;20062;-65
2021/07/16 07:19:09;;;;;;;5.00;2.72;;;;;;;16.58;100.00;97846.06;4985368;28;20077;-65
2021/07/16 07:21:57;;;;;;;5.53;4.20;;;;;;;16.47;100.00;97844.16;4988113;28;20093;-65
2021/07/16 07:24:45;;;;;;;5.97;4.15;;;;;;;16.53;100.00;97854.22;4989385;28;20039;-65
2021/07/16 07:27:33;;;;;;;8.55;5.50;;;;;;;16.54;100.00;97861.16;4971114;28;20053;-65
2021/07/16 07:30:22;;;;;;;6.93;4.60;;;;;;;16.36;100.00;97868.38;4992176;28;20489;-65
2021/07/16 07:33:10;;;;;;;4.60;3.42;;;;;;;16.22;100.00;97865.78;4989088;28;20050;-65
2021/07/16 07:35:58;;;;;;;7.03;4.18;;;;;;;16.38;100.00;97863.06;4990206;28;20474;-65
2021/07/16 07:38:46;;;;;;;6.53;3.42;;;;;;;16.52;100.00;97869.13;4990030;28;20046;-65
2021/07/16 07:41:34;;;;;;;4.68;2.65;;;;;;;16.46;100.00;97874.72;4990447;28;20486;-65
2021/07/16 07:44:21;;;;;;;3.92;2.80;;;;;;;16.39;100.00;97883.06;4989814;28;20046;-65
2021/07/16 07:47:09;;;;;;;4.70;2.60;;;;;;;16.26;100.00;97877.72;4990085;28;20058;-65
2021/07/16 07:49:57;;;;;;;3.58;2.40;;;;;;;16.38;100.00;97884.03;4989851;28;20058;-65
2021/07/16 07:52:47;;;;;;;6.22;2.33;;;;;;;16.37;100.00;97875.28;4988012;28;20054;-65
2021/07/16 07:55:34;;;;;;;4.10;1.75;;;;;;;16.59;100.00;97879.22;4990876;28;20093;-65
2021/07/16 07:58:23;;;;;;;4.03;2.03;;;;;;;16.54;100.00;97887.38;4988811;28;20050;-65
2021/07/16 08:01:10;;;;;;;3.25;1.85;;;;;;;16.87;100.00;97891.47;4989152;28;20129;-65
2021/07/16 08:03:59;;;;;;;11.07;2.67;;;;;;;16.91;99.81;97885.09;4986941;28;20042;-65
2021/07/16 08:06:47;;;;;;;3.00;2.00;;;;;;;16.83;99.09;97893.47;4987903;28;20132;-65
2021/07/16 08:09:35;;;;;;;3.35;2.15;;;;;;;16.76;99.94;97886.84;4988343;28;20046;-65
2021/07/16 08:12:23;;;;;;;4.90;2.42;;;;;;;16.78;100.00;97895.47;4975952;28;20046;-65
2021/07/16 08:15:13;;;;;;;5.13;2.38;;;;;;;16.87;100.00;97896.72;4989006;28;20125;-65
2021/07/16 08:18:01;;;;;;;5.15;2.95;;;;;;;16.74;100.00;97899.25;4987761;28;20050;-65
2021/07/16 08:20:48;;;;;;;6.72;3.00;;;;;;;16.86;100.00;97902.91;4990504;28;20047;-65
2021/07/16 08:23:36;;;;;;;4.43;2.58;;;;;;;16.95;100.00;97898.88;4986845;28;20426;-65
2021/07/16 08:26:24;;;;;;;4.35;2.58;;;;;;;17.12;100.00;97903.84;4989558;28;20038;-65
2021/07/16 08:29:12;;;;;;;5.63;3.15;;;;;;;17.03;99.39;97907.91;4970631;28;20539;-65
2021/07/16 08:32:00;;;;;;;4.88;2.92;;;;;;;17.06;100.00;97912.97;4986432;28;20043;-65
2021/07/16 08:34:48;;;;;;;6.75;3.22;;;;;;;17.13;99.86;97908.19;4987776;28;20090;-65
2021/07/16 08:37:36;;;;;;;5.32;3.70;;;;;;;16.96;99.70;97898.75;4971316;28;20093;-65
2021/07/16 08:40:24;;;;;;;7.18;4.60;;;;;;;16.95;98.06;97907.56;4985052;28;20109;-65
2021/07/16 08:43:15;;;;;;;7.13;3.85;;;;;;;16.84;98.96;97910.03;4985457;28;20043;-65
2021/07/16 08:46:03;;;;;;;6.65;3.95;;;;;;;16.85;98.87;97909.06;4993382;28;20070;-65
2021/07/16 08:48:51;;;;;;;6.45;4.55;;;;;;;16.91;99.49;97906.06;4979352;28;20046;-65
2021/07/16 08:51:42;;;;;;;7.45;4.68;;;;;;;16.92;98.97;97898.13;4993780;28;20057;-65
2021/07/16 08:54:30;;;;;;;7.28;4.95;;;;;;;16.92;100.00;97906.00;4993749;28;20046;-65
2021/07/16 08:57:19;;;;;;;9.05;5.72;;;;;;;16.93;99.61;97893.72;4993974;28;20089;-65
2021/07/16 09:00:13;;;;;;;5.55;4.22;;;;;;;17.02;100.00;97898.38;4993566;28;20042;-65
2021/07/16 09:03:01;;;;;;;6.95;4.85;;;;;;;17.10;100.00;97910.97;4990967;28;20089;-65
2021/07/16 09:05:50;;;;;;;11.20;5.32;;;;;;;17.13;100.00;97911.63;4978339;28;20042;-65
2021/07/16 09:08:41;;;;;;;8.85;5.35;;;;;;;17.33;100.00;97918.25;4990758;28;20050;-65
2021/07/16 09:11:28;;;;;;;12.63;7.53;;;;;;;17.18;99.69;97913.97;4961978;28;20047;-65
2021/07/16 09:14:22;;;;;;;12.43;8.35;;;;;;;17.19;100.00;97914.81;4974901;28;20051;-65
2021/07/16 09:17:14;;;;;;;14.35;9.80;;;;;;;17.32;100.00;97915.72;4974943;28;20417;-65
2021/07/16 09:20:02;;;;;;;14.73;10.30;;;;;;;17.38;100.00;97922.31;4959645;28;20046;-65
2021/07/16 09:23:11;;;;;;;14.25;9.45;;;;;;;18.00;100.00;97921.81;4984091;28;20142;-65
2021/07/16 09:26:09;;;;;;;13.23;9.13;;;;;;;19.82;93.01;97905.41;4981939;28;20399;-65
2021/07/16 09:28:57;;;;;;;16.17;11.65;;;;;;;19.63;89.54;97905.91;4978031;28;20433;-65
2021/07/16 09:31:45;;;;;;;12.43;9.18;;;;;;;20.47;86.86;97904.78;4973967;28;20052;-65
2021/07/16 09:34:33;;;;;;;15.38;10.95;;;;;;;20.61;83.93;97913.44;4977697;28;20046;-65
2021/07/16 09:37:21;;;;;;;17.50;11.90;;;;;;;19.78;86.96;97912.69;4980628;28;20057;-65
2021/07/16 09:40:10;;;;;;;13.40;9.65;;;;;;;20.36;86.32;97915.31;4979273;28;20077;-65
2021/07/16 09:43:11;;;;;;;13.73;9.73;;;;;;;19.90;86.96;97915.34;4967254;28;20066;-65
2021/07/16 09:46:01;;;;;;;12.85;10.13;;;;;;;19.47;89.27;97924.63;4978169;28;20464;-65
2021/07/16 09:48:49;;;;;;;13.13;9.38;;;;;;;19.61;89.26;97928.84;4972481;28;20081;-64
2021/07/16 09:51:41;;;;;;;10.38;7.38;;;;;;;19.42;87.02;97922.31;4983448;28;20525;-65
2021/07/16 09:54:29;;;;;;;11.13;6.80;;;;;;;19.46;88.33;97928.22;4972685;28;20491;-65
2021/07/16 09:57:46;;;;;;;8.73;6.88;;;;;;;19.13;88.76;97939.38;4953044;29;20051;-65
2021/07/16 10:00:34;;;;;;;11.18;6.72;;;;;;;19.50;88.53;97941.97;4954182;29;20479;-65
2021/07/16 10:03:22;;;;;;;7.22;5.35;;;;;;;19.55;88.12;97939.88;4978787;28;20133;-65
2021/07/16 10:06:14;;;;;;;8.85;6.32;;;;;;;19.49;88.70;97935.88;4959962;28;20055;-65
2021/07/16 10:09:03;;;;;;;9.77;7.68;;;;;;;19.63;88.09;97933.06;4972758;28;20133;-65
2021/07/16 10:11:53;;;;;;;13.07;7.65;;;;;;;19.76;86.81;97933.03;4975518;28;20039;-65
2021/07/16 10:14:42;;;;;;;11.20;7.93;;;;;;;19.54;87.81;97930.28;4971370;28;20050;-65
2021/07/16 10:17:30;;;;;;;9.50;6.40;;;;;;;20.41;86.25;97938.69;4958223;28;20043;-65
2021/07/16 10:20:18;;;;;;;11.50;8.27;;;;;;;20.56;84.21;97934.03;4970851;28;20500;-65
2021/07/16 10:23:08;;;;;;;12.43;7.35;;;;;;;21.89;79.68;97928.63;4977110;28;20069;-65
2021/07/16 10:25:56;;;;;;;8.68;6.90;;;;;;;21.35;81.60;97936.59;4961582;28;20102;-65
2021/07/16 10:28:45;;;;;;;9.13;5.90;;;;;;;21.86;78.27;97938.63;4956266;28;20069;-64
2021/07/16 10:31:33;;;;;;;7.07;5.07;;;;;;;22.11;77.28;97937.44;4969293;28;20031;-64
2021/07/16 10:34:26;;;;;;;4.95;3.95;;;;;;;22.40;75.23;97940.28;4960944;28;20046;-64
2021/07/16 10:37:14;;;;;;;6.20;3.38;;;;;;;22.10;74.07;97946.31;4978092;28;20149;-64
2021/07/16 10:40:03;;;;;;;6.68;4.90;;;;;;;21.03;78.65;97947.97;4980454;28;20367;-64
2021/07/16 10:42:50;;;;;;;6.18;4.78;;;;;;;21.23;77.24;97956.94;4954462;28;20047;-64
2021/07/16 10:45:40;;;;;;;8.25;4.85;;;;;;;21.04;78.88;97954.91;4972379;28;20065;-64
2021/07/16 10:48:35;;;;;;;6.53;4.50;;;;;;;21.29;79.56;97956.44;4967765;28;20551;-64
2021/07/16 10:51:28;;;;;;;7.43;5.63;;;;;;;21.13;81.51;97948.91;4943758;28;20047;-64
2021/07/16 10:54:17;;;;;;;7.55;5.25;;;;;;;22.54;76.60;97942.56;4973094;28;20475;-64
2021/07/16 10:57:28;;;;;;;6.15;5.22;;;;;;;22.96;72.26;97938.97;4956276;28;20222;-63
2021/07/16 11:00:37;;;;;;;7.43;6.03;;;;;;;23.20;72.00;97951.09;4969290;28;20109;-64
2021/07/16 11:03:50;;;;;;;5.80;4.88;;;;;;;24.21;69.55;97942.75;4977576;28;20038;-64
2021/07/16 11:06:52;;;;;;;8.02;6.53;;;;;;;22.63;73.51;97942.78;4978238;28;20540;-64
2021/07/16 11:09:46;;;;;;;7.50;6.35;;;;;;;21.91;77.25;97949.66;4985561;28;20050;-64
2021/07/16 11:12:35;;;;;;;9.27;7.13;;;;;;;21.58;78.38;97953.28;4990842;28;20394;-61
2021/07/16 11:15:30;;;;;;;8.98;6.88;;;;;;;21.50;77.22;97948.63;4989744;28;20513;-61
2021/07/16 11:18:28;;;;;;;7.20;6.18;;;;;;;22.19;76.17;97950.84;4991365;28;20043;-61
2021/07/16 11:21:39;;;;;;;8.27;5.50;;;;;;;22.84;72.97;97942.72;4988651;28;20038;-62
2021/07/16 11:24:31;;;;;;;8.70;5.22;;;;;;;23.57;71.51;97943.31;4978756;28;20050;-61
2021/07/16 11:27:20;;;;;;;9.05;5.70;;;;;;;22.26;75.18;97957.31;4971390;28;20055;-60
2021/07/16 11:30:08;;;;;;;6.05;4.75;;;;;;;23.60;69.94;97951.00;4987810;28;20042;-61
2021/07/16 11:33:01;;;;;;;7.45;5.60;;;;;;;22.87;72.17;97950.38;4957690;28;20142;-62
2021/07/16 11:35:52;;;;;;;8.45;5.20;;;;;;;23.13;70.36;97950.78;4985200;28;20474;-62
2021/07/16 11:38:40;;;;;;;5.53;4.63;;;;;;;23.33;70.30;97957.81;4993865;28;20069;-62
2021/07/16 11:41:32;;;;;;;8.38;5.32;;;;;;;23.36;70.02;97960.16;4963559;28;20188;-62
2021/07/16 11:44:26;;;;;;;;;;;;;;;22.40;72.14;97957.94;4977339;28;20047;-65
2021/07/16 11:47:14;;;;;;;9.45;6.15;;;;;;;22.53;71.99;97948.00;4990253;28;20753;-65
2021/07/16 11:50:07;;;;;;;7.07;5.43;;;;;;;22.36;73.52;97951.25;4990886;28;20050;-64
2021/07/16 11:52:55;;;;;;;7.60;6.50;;;;;;;21.75;75.79;97951.91;4972701;28;20073;-65
2021/07/16 11:55:45;;;;;;;8.02;6.10;;;;;;;21.60;75.14;97951.34;4986983;28;20046;-65
2021/07/16 11:58:32;;;;;;;7.05;5.50;;;;;;;22.96;72.44;97941.63;4987729;28;21388;-65
2021/07/16 12:01:20;;;;;;;7.65;5.55;;;;;;;22.93;71.31;97945.38;4989132;28;20042;-65
2021/07/16 12:04:21;;;;;;;7.15;5.65;;;;;;;22.00;73.25;97951.53;4986640;28;20042;-64
2021/07/16 12:07:11;;;;;;;8.43;6.38;;;;;;;21.76;73.78;97946.50;4988463;28;20096;-65
2021/07/16 12:09:58;;;;;;;8.45;6.80;;;;;;;22.36;73.29;97962.66;4986597;28;20051;-65
2021/07/16 12:12:47;;;;;;;8.23;7.43;;;;;;;21.76;73.97;97957.06;4979774;28;20038;-65
2021/07/16 12:15:34;;;;;;;8.85;7.15;;;;;;;21.50;76.15;97949.44;4979548;28;20077;-65
2021/07/16 12:18:22;;;;;;;11.07;7.30;;;;;;;21.41;76.46;97954.63;4987967;28;20446;-65
2021/07/16 12:21:12;;;;;;;8.65;7.43;;;;;;;21.66;74.09;97961.41;4987301;28;20566;-65
2021/07/16 12:24:00;;;;;;;11.85;8.23;;;;;;;22.45;72.15;97947.81;4988979;28;20047;-65
2021/07/16 12:26:48;;;;;;;9.30;7.95;;;;;;;23.52;68.08;97945.56;4971822;28;20089;-65
2021/07/16 12:29:35;;;;;;;9.43;7.53;;;;;;;23.83;66.03;97940.97;4976233;28;20466;-65
2021/07/16 12:32:35;;;;;;;11.85;8.05;;;;;;;23.64;68.79;97944.44;4988021;28;20133;-65
2021/07/16 12:35:28;;;;;;;11.93;7.95;;;;;;;23.07;68.92;97946.03;4990631;28;20062;-65
2021/07/16 12:38:18;;;;;;;12.23;8.35;;;;;;;23.80;66.80;97939.44;4975154;28;20073;-65
2021/07/16 12:41:09;;;;;;;11.13;7.40;;;;;;;24.60;63.41;97939.22;4989505;28;20101;-65
2021/07/16 12:43:58;;;;;;;8.93;6.47;;;;;;;25.15;61.56;97939.22;4986447;28;20051;-65
2021/07/16 12:46:45;;;;;;;10.02;6.95;;;;;;;24.95;62.62;97938.53;4971125;28;20077;-65
2021/07/16 12:49:33;;;;;;;8.95;7.70;;;;;;;24.24;64.55;97941.63;4984239;28;20046;-65
2021/07/16 12:52:23;;;;;;;12.65;8.88;;;;;;;23.64;65.73;97933.84;4987537;28;20511;-66
2021/07/16 12:55:11;;;;;;;13.32;9.98;;;;;;;22.71;70.04;97945.56;4989446;28;20066;-65
2021/07/16 12:58:09;;;;;;;12.60;9.55;;;;;;;23.47;68.32;97953.06;4988549;28;20042;-65
2021/07/16 13:00:57;;;;;;;11.55;9.13;;;;;;;22.93;67.59;97947.19;4990177;28;20060;-65
2021/07/16 13:03:46;;;;;;;12.55;8.75;;;;;;;23.38;67.16;97950.28;4989300;28;20051;-65
2021/07/16 13:06:33;;;;;;;12.52;8.75;;;;;;;23.87;64.55;97941.56;4989701;28;20046;-64